createdAt,value
2022-09-20T00:00:38.878Z,99.90
2022-09-20T00:03:45.753Z,99.90
2022-09-20T00:06:49.663Z,99.90
2022-09-20T00:09:53.916Z,99.90
2022-09-20T00:12:58.255Z,99.90
2022-09-20T00:16:06.569Z,99.90
2022-09-20T00:19:19.760Z,99.90
2022-09-20T00:22:23.847Z,99.90
2022-09-20T00:25:28.198Z,99.90
2022-09-20T00:28:34.489Z,99.90
2022-09-20T00:31:40.278Z,99.90
2022-09-20T00:35:03.107Z,99.90
2022-09-20T00:38:07.495Z,99.90
2022-09-20T00:41:12.346Z,99.90
2022-09-20T00:44:53.435Z,99.90
2022-09-20T00:48:17.742Z,99.90
2022-09-20T00:51:29.968Z,99.90
2022-09-20T00:54:34.693Z,99.90
2022-09-20T00:57:39.934Z,99.90
2022-09-20T01:00:45.784Z,99.90
2022-09-20T01:03:50.056Z,99.90
2022-09-20T01:06:58.016Z,99.90
2022-09-20T01:10:02.502Z,99.90
2022-09-20T01:13:07.867Z,99.90
2022-09-20T01:16:14.922Z,99.90
2022-09-20T01:19:51.266Z,99.90
2022-09-20T01:23:06.117Z,99.90
2022-09-20T01:26:32.176Z,99.90
2022-09-20T01:30:20.970Z,99.90
2022-09-20T01:33:53.164Z,99.90
2022-09-20T01:37:11.753Z,99.90
2022-09-20T01:40:31.768Z,99.90
2022-09-20T01:43:53.567Z,99.90
2022-09-20T01:47:08.526Z,99.90
2022-09-20T01:50:45.308Z,99.90
2022-09-20T01:54:03.207Z,99.90
2022-09-20T01:57:18.182Z,99.90
2022-09-20T02:00:31.042Z,99.90
2022-09-20T02:03:46.682Z,99.90
2022-09-20T02:07:24.820Z,99.90
2022-09-20T02:10:49.122Z,99.90
2022-09-20T02:14:11.045Z,99.90
2022-09-20T02:17:38.096Z,99.90
2022-09-20T02:21:11.059Z,99.90
2022-09-20T02:24:52.885Z,99.90
2022-09-20T02:28:17.218Z,99.90
2022-09-20T02:32:06.028Z,99.90
2022-09-20T02:35:34.116Z,99.90
2022-09-20T02:39:21.286Z,99.90
2022-09-20T02:42:36.960Z,99.90
2022-09-20T02:46:01.678Z,99.90
2022-09-20T02:49:32.718Z,99.90
2022-09-20T02:52:51.628Z,99.90
2022-09-20T02:56:09.684Z,99.90
2022-09-20T02:59:46.342Z,99.90
2022-09-20T03:03:24.057Z,99.90
2022-09-20T03:06:46.629Z,99.90
2022-09-20T03:10:11.018Z,99.90
2022-09-20T03:13:19.938Z,99.90
2022-09-20T03:16:47.589Z,99.90
2022-09-20T03:20:29.310Z,99.90
2022-09-20T03:24:04.844Z,99.90
2022-09-20T03:27:35.301Z,99.90
2022-09-20T03:31:02.649Z,99.90
2022-09-20T03:34:34.870Z,99.90
2022-09-20T03:37:51.681Z,99.90
2022-09-20T03:41:27.500Z,99.90
2022-09-20T03:44:43.750Z,99.90
2022-09-20T03:48:53.725Z,99.90
2022-09-20T03:52:35.329Z,99.90
2022-09-20T03:56:01.853Z,99.90
2022-09-20T03:59:12.257Z,99.90
2022-09-20T04:02:33.994Z,99.90
2022-09-20T04:06:15.071Z,99.90
2022-09-20T04:09:48.545Z,99.90
2022-09-20T04:13:19.646Z,99.90
2022-09-20T04:16:42.515Z,99.90
2022-09-20T04:19:56.568Z,99.90
2022-09-20T04:23:12.215Z,99.90
2022-09-20T04:26:25.684Z,99.90
2022-09-20T04:29:41.751Z,99.90
2022-09-20T04:32:54.825Z,99.90
2022-09-20T04:36:31.437Z,99.90
2022-09-20T04:39:54.536Z,99.90
2022-09-20T04:43:32.433Z,99.90
2022-09-20T04:46:58.718Z,99.90
2022-09-20T04:50:22.159Z,99.90
2022-09-20T04:53:41.363Z,99.90
2022-09-20T04:56:54.327Z,99.90
2022-09-20T05:00:13.077Z,99.90
2022-09-20T05:03:47.106Z,99.90
2022-09-20T05:07:04.925Z,99.90
2022-09-20T05:10:21.225Z,99.90
2022-09-20T05:13:41.940Z,99.90
2022-09-20T05:17:07.593Z,99.90
2022-09-20T05:20:43.713Z,99.90
2022-09-20T05:24:29.578Z,99.90
2022-09-20T05:27:50.543Z,99.90
2022-09-20T05:31:38.173Z,99.90
2022-09-20T05:35:17.752Z,99.90
2022-09-20T05:38:30.949Z,99.90
2022-09-20T05:41:43.793Z,99.90
2022-09-20T05:45:17.947Z,99.90
2022-09-20T05:48:37.159Z,99.90
2022-09-20T05:52:04.943Z,99.90
2022-09-20T05:55:24.560Z,99.90
2022-09-20T05:58:45.003Z,99.90
2022-09-20T06:02:27.966Z,99.90
2022-09-20T06:05:48.193Z,99.90
2022-09-20T06:09:17.029Z,99.90
2022-09-20T06:12:21.466Z,99.90
2022-09-20T06:15:41.062Z,99.90
2022-09-20T06:18:57.412Z,99.90
2022-09-20T06:22:36.339Z,99.90
2022-09-20T06:25:48.094Z,99.90
2022-09-20T06:29:03.165Z,99.90
2022-09-20T06:32:08.240Z,99.90
2022-09-20T06:35:12.448Z,99.90
2022-09-20T06:39:02.116Z,99.90
2022-09-20T06:42:07.049Z,99.90
2022-09-20T06:45:11.581Z,99.90
2022-09-20T06:48:16.151Z,99.90
2022-09-20T06:51:20.840Z,99.90
2022-09-20T06:54:27.067Z,99.90
2022-09-20T06:57:37.895Z,99.90
2022-09-20T07:00:42.542Z,99.90
2022-09-20T07:03:46.942Z,99.90
2022-09-20T07:06:51.316Z,99.90
2022-09-20T07:09:55.779Z,99.90
2022-09-20T07:13:01.823Z,99.90
2022-09-20T07:16:08.281Z,99.90
2022-09-20T07:19:13.677Z,99.90
2022-09-20T07:22:17.730Z,99.90
2022-09-20T07:25:22.738Z,99.90
2022-09-20T07:28:32.653Z,99.90
2022-09-20T07:31:37.077Z,99.90
2022-09-20T07:34:41.728Z,99.40
2022-09-20T07:37:46.969Z,99.50
2022-09-20T07:41:00.623Z,99.70
2022-09-20T07:44:23.658Z,98.00
2022-09-20T07:47:28.764Z,97.80
2022-09-20T07:50:36.475Z,99.10
2022-09-20T07:53:41.555Z,98.20
2022-09-20T07:56:46.185Z,98.40
2022-09-20T07:59:50.369Z,98.40
2022-09-20T08:02:59.242Z,97.90
2022-09-20T08:06:06.352Z,97.10
2022-09-20T08:09:12.216Z,97.30
2022-09-20T08:15:43.627Z,96.40
2022-09-20T08:18:49.455Z,95.60
2022-09-20T08:21:54.265Z,94.90
2022-09-20T08:24:58.344Z,93.80
2022-09-20T08:28:02.781Z,93.40
2022-09-20T08:31:15.897Z,94.80
2022-09-20T08:34:20.179Z,94.80
2022-09-20T08:37:24.536Z,94.10
2022-09-20T08:40:30.734Z,94.30
2022-09-20T08:43:56.793Z,93.90
2022-09-20T08:47:21.311Z,93.50
2022-09-20T08:50:26.561Z,91.70
2022-09-20T08:53:31.070Z,91.50
2022-09-20T08:56:37.177Z,92.20
2022-09-20T08:59:41.978Z,91.30
2022-09-20T09:02:46.089Z,90.30
2022-09-20T09:05:55.653Z,87.30
2022-09-20T09:08:59.845Z,86.20
2022-09-20T09:12:04.750Z,84.90
2022-09-20T09:15:27.654Z,86.00
2022-09-20T09:18:35.887Z,82.70
2022-09-20T09:21:43.373Z,85.80
2022-09-20T09:25:13.165Z,88.30
2022-09-20T09:28:24.284Z,90.20
2022-09-20T09:31:28.900Z,88.80
2022-09-20T09:34:36.018Z,88.40
2022-09-20T09:37:52.494Z,88.50
2022-09-20T09:41:02.442Z,88.40
2022-09-20T09:44:18.616Z,91.20
2022-09-20T09:47:28.187Z,92.50
2022-09-20T09:50:34.356Z,93.00
2022-09-20T09:53:39.860Z,92.10
2022-09-20T09:57:11.746Z,90.10
2022-09-20T10:00:22.791Z,90.60
2022-09-20T10:04:11.233Z,88.50
2022-09-20T10:07:19.201Z,86.90
2022-09-20T10:10:26.584Z,86.40
2022-09-20T10:13:49.962Z,85.10
2022-09-20T10:17:15.829Z,84.50
2022-09-20T10:20:41.578Z,83.80
2022-09-20T10:24:03.607Z,81.80
2022-09-20T10:27:27.145Z,80.10
2022-09-20T10:30:58.023Z,78.50
2022-09-20T10:34:12.370Z,78.20
2022-09-20T10:37:25.309Z,79.80
2022-09-20T10:41:02.368Z,78.50
2022-09-20T10:44:20.947Z,76.70
2022-09-20T10:47:41.010Z,74.30
2022-09-20T10:51:06.913Z,73.40
2022-09-20T10:54:46.802Z,72.20
2022-09-20T10:58:24.748Z,71.40
2022-09-20T11:01:34.518Z,70.60
2022-09-20T11:05:16.721Z,73.00
2022-09-20T11:08:26.531Z,74.80
2022-09-20T11:12:16.246Z,74.20
2022-09-20T11:15:47.865Z,71.20
2022-09-20T11:18:59.193Z,69.90
2022-09-20T11:22:11.747Z,71.10
2022-09-20T11:25:26.054Z,67.40
2022-09-20T11:28:32.820Z,70.60
2022-09-20T11:31:44.186Z,73.50
2022-09-20T11:34:55.945Z,75.90
2022-09-20T11:38:25.198Z,77.30
2022-09-20T11:41:31.320Z,78.40
2022-09-20T11:44:40.073Z,78.10
2022-09-20T11:47:55.023Z,78.40
2022-09-20T11:51:31.419Z,77.90
2022-09-20T11:54:41.192Z,75.30
2022-09-20T11:57:46.736Z,75.60
2022-09-20T12:00:55.030Z,73.10
2022-09-20T12:04:30.656Z,70.30
2022-09-20T12:07:33.813Z,70.10
2022-09-20T12:10:39.742Z,67.30
2022-09-20T12:13:55.437Z,66.40
2022-09-20T12:17:00.222Z,65.30
2022-09-20T12:20:34.649Z,69.70
2022-09-20T12:23:42.409Z,73.20
2022-09-20T12:26:47.970Z,74.90
2022-09-20T12:30:20.915Z,75.40
2022-09-20T12:34:04.915Z,74.60
2022-09-20T12:37:21.776Z,75.30
2022-09-20T12:40:25.957Z,76.00
2022-09-20T12:43:33.087Z,74.70
2022-09-20T12:46:51.265Z,75.80
2022-09-20T12:50:23.674Z,74.70
2022-09-20T12:53:27.998Z,74.90
2022-09-20T12:56:39.096Z,77.40
2022-09-20T12:59:43.104Z,76.30
2022-09-20T13:02:51.959Z,74.90
2022-09-20T13:06:14.790Z,74.20
2022-09-20T13:09:20.505Z,72.90
2022-09-20T13:12:24.733Z,71.40
2022-09-20T13:15:29.607Z,71.30
2022-09-20T13:18:36.272Z,73.40
2022-09-20T13:21:46.039Z,73.50
2022-09-20T13:24:58.058Z,74.70
2022-09-20T13:28:21.232Z,76.30
2022-09-20T13:31:28.267Z,77.60
2022-09-20T13:34:32.681Z,78.10
2022-09-20T13:37:53.530Z,77.10
2022-09-20T13:41:09.097Z,73.90
2022-09-20T13:44:17.214Z,73.60
2022-09-20T13:47:30.504Z,70.50
2022-09-20T13:50:39.242Z,69.40
2022-09-20T13:53:47.414Z,71.60
2022-09-20T13:56:52.181Z,72.40
2022-09-20T13:59:57.976Z,72.30
2022-09-20T14:03:01.975Z,73.40
2022-09-20T14:06:13.520Z,74.30
2022-09-20T14:09:39.376Z,75.00
2022-09-20T14:12:44.490Z,75.30
2022-09-20T14:15:49.635Z,77.70
2022-09-20T14:18:54.090Z,77.70
2022-09-20T14:22:03.901Z,79.40
2022-09-20T14:25:14.250Z,80.30
2022-09-20T14:28:19.899Z,80.00
2022-09-20T14:31:31.285Z,80.00
2022-09-20T14:34:37.420Z,81.00
2022-09-20T14:37:45.510Z,78.00
2022-09-20T14:40:51.687Z,75.70
2022-09-20T14:43:58.825Z,71.40
2022-09-20T14:47:15.263Z,69.30
2022-09-20T14:50:24.875Z,68.50
2022-09-20T14:53:29.526Z,67.00
2022-09-20T14:56:37.050Z,65.50
2022-09-20T14:59:44.652Z,66.30
2022-09-20T15:02:50.333Z,70.20
2022-09-20T15:05:55.061Z,77.60
2022-09-20T15:09:00.202Z,79.40
2022-09-20T15:12:12.580Z,80.10
2022-09-20T15:15:18.899Z,83.20
2022-09-20T15:18:26.614Z,79.80
2022-09-20T15:21:31.005Z,76.60
2022-09-20T15:24:35.419Z,75.90
2022-09-20T15:27:39.902Z,72.80
2022-09-20T15:30:50.297Z,70.30
2022-09-20T15:33:54.750Z,68.90
2022-09-20T15:36:58.996Z,67.30
2022-09-20T15:40:05.105Z,66.50
2022-09-20T15:43:14.113Z,64.40
2022-09-20T15:46:23.415Z,63.80
2022-09-20T15:49:31.020Z,64.30
2022-09-20T15:52:42.326Z,65.50
2022-09-20T15:55:46.598Z,64.60
2022-09-20T15:59:01.742Z,64.60
2022-09-20T16:02:06.182Z,65.10
2022-09-20T16:05:10.965Z,65.60
2022-09-20T16:08:15.363Z,66.30
2022-09-20T16:11:22.899Z,67.00
2022-09-20T16:14:27.391Z,66.40
2022-09-20T16:17:50.487Z,66.80
2022-09-20T16:20:54.849Z,66.90
2022-09-20T16:24:00.361Z,72.00
2022-09-20T16:27:07.192Z,71.10
2022-09-20T16:30:12.297Z,77.50
2022-09-20T16:33:16.594Z,84.50
2022-09-20T16:36:27.313Z,91.10
2022-09-20T16:39:31.986Z,93.80
2022-09-20T16:42:37.825Z,97.90
2022-09-20T16:45:42.554Z,99.90
2022-09-20T16:48:48.294Z,99.90
2022-09-20T16:51:52.718Z,99.90
2022-09-20T16:54:56.774Z,99.90
2022-09-20T16:58:01.050Z,99.90
2022-09-20T17:01:06.239Z,99.90
2022-09-20T17:04:13.462Z,99.90
2022-09-20T17:07:17.839Z,99.90
2022-09-20T17:10:24.267Z,99.90
2022-09-20T17:13:32.958Z,99.90
2022-09-20T17:16:39.289Z,99.90
2022-09-20T17:19:43.974Z,99.90
2022-09-20T17:22:48.975Z,99.90
2022-09-20T17:26:01.432Z,99.90
2022-09-20T17:29:10.417Z,99.90
2022-09-20T17:32:14.563Z,99.90
2022-09-20T17:35:18.843Z,99.90
2022-09-20T17:38:22.982Z,99.90
2022-09-20T17:41:28.315Z,99.90
2022-09-20T17:44:36.710Z,99.90
2022-09-20T17:47:44.345Z,99.90
2022-09-20T17:50:57.962Z,99.90
2022-09-20T17:54:02.942Z,99.90
2022-09-20T17:57:07.270Z,99.90
2022-09-20T18:00:12.178Z,99.90
2022-09-20T18:03:17.459Z,99.90
2022-09-20T18:06:24.739Z,99.90
2022-09-20T18:09:29.417Z,99.90
2022-09-20T18:12:33.862Z,99.90
2022-09-20T18:15:38.105Z,99.90
2022-09-20T18:18:43.648Z,99.90
2022-09-20T18:21:48.570Z,99.90
2022-09-20T18:24:52.796Z,99.90
2022-09-20T18:27:57.313Z,99.90
2022-09-20T18:31:03.262Z,99.90
2022-09-20T18:34:15.589Z,99.90
2022-09-20T18:37:20.234Z,99.90
2022-09-20T18:40:24.605Z,99.90
2022-09-20T18:43:32.440Z,99.90
2022-09-20T18:46:40.677Z,99.90
2022-09-20T18:49:45.228Z,99.90
2022-09-20T18:52:51.190Z,99.90
2022-09-20T18:55:56.036Z,99.90
2022-09-20T18:59:25.270Z,99.90
2022-09-20T19:02:48.531Z,99.90
2022-09-20T19:05:59.717Z,99.90
2022-09-20T19:09:20.299Z,99.90
2022-09-20T19:12:34.159Z,99.90
2022-09-20T19:15:52.324Z,99.90
2022-09-20T19:19:27.823Z,99.90
2022-09-20T19:22:40.957Z,99.90
2022-09-20T19:25:47.786Z,99.90
2022-09-20T19:28:55.179Z,99.90
2022-09-20T19:32:00.711Z,99.90
2022-09-20T19:35:05.912Z,99.90
2022-09-20T19:38:37.315Z,99.90
2022-09-20T19:41:47.348Z,99.90
2022-09-20T19:44:51.662Z,99.90
2022-09-20T19:48:08.049Z,99.90
2022-09-20T19:51:13.948Z,99.90
2022-09-20T19:54:18.827Z,99.90
2022-09-20T19:57:30.517Z,99.90
2022-09-20T20:00:35.048Z,99.90
2022-09-20T20:03:39.613Z,99.90
2022-09-20T20:06:47.522Z,99.90
2022-09-20T20:10:18.993Z,99.90
2022-09-20T20:13:50.661Z,99.90
2022-09-20T20:17:19.849Z,99.90
2022-09-20T20:20:33.825Z,99.90
2022-09-20T20:24:04.928Z,99.90
2022-09-20T20:27:09.471Z,99.90
2022-09-20T20:30:13.752Z,99.90
2022-09-20T20:33:21.078Z,99.90
2022-09-20T20:36:25.126Z,99.90
2022-09-20T20:39:31.503Z,99.90
2022-09-20T20:42:37.004Z,99.90
2022-09-20T20:45:49.798Z,99.90
2022-09-20T20:48:54.268Z,99.90
2022-09-20T20:52:02.817Z,99.90
2022-09-20T20:55:08.086Z,99.90
2022-09-20T20:58:12.366Z,99.90
2022-09-20T21:01:18.745Z,99.90
2022-09-20T21:04:24.950Z,99.90
2022-09-20T21:07:29.198Z,99.90
2022-09-20T21:10:33.577Z,99.90
2022-09-20T21:13:39.434Z,99.90
2022-09-20T21:16:44.163Z,99.90
2022-09-20T21:19:49.923Z,99.90
2022-09-20T21:22:56.165Z,99.90
2022-09-20T21:26:07.740Z,99.90
2022-09-20T21:29:14.477Z,99.90
2022-09-20T21:32:19.866Z,99.90
2022-09-20T21:35:24.700Z,99.90
2022-09-20T21:38:33.223Z,99.90
2022-09-20T21:41:38.896Z,99.90
2022-09-20T21:44:43.569Z,99.90
2022-09-20T21:47:48.877Z,99.90
2022-09-20T21:50:52.994Z,99.90
2022-09-20T21:53:59.529Z,99.90
2022-09-20T21:57:04.455Z,99.90
2022-09-20T22:00:10.114Z,99.90
2022-09-20T22:03:17.050Z,99.90
2022-09-20T22:06:23.172Z,99.90
2022-09-20T22:09:27.370Z,99.90
2022-09-20T22:12:31.751Z,99.90
2022-09-20T22:15:36.244Z,99.90
2022-09-20T22:18:42.912Z,99.90
2022-09-20T22:21:49.379Z,99.90
2022-09-20T22:24:53.635Z,99.90
2022-09-20T22:27:58.104Z,99.90
2022-09-20T22:31:04.590Z,99.90
2022-09-20T22:34:09.279Z,99.90
2022-09-20T22:37:13.808Z,99.90
2022-09-20T22:40:19.856Z,99.90
2022-09-20T22:43:24.886Z,99.90
2022-09-20T22:46:30.525Z,99.90
2022-09-20T22:49:34.973Z,99.90
2022-09-20T22:52:39.177Z,99.90
2022-09-20T22:55:43.581Z,99.90
2022-09-20T22:58:51.401Z,99.90
2022-09-20T23:01:55.821Z,99.90
2022-09-20T23:05:00.305Z,99.90
2022-09-20T23:08:05.649Z,99.90
2022-09-20T23:11:10.642Z,99.90
2022-09-20T23:14:16.308Z,99.90
2022-09-20T23:17:20.652Z,99.90
2022-09-20T23:20:25.162Z,99.90
2022-09-20T23:23:30.018Z,99.90
2022-09-20T23:26:36.794Z,99.90
2022-09-20T23:29:41.559Z,99.90
2022-09-20T23:32:45.777Z,99.90
2022-09-20T23:35:50.074Z,99.90
2022-09-20T23:38:54.805Z,99.90
2022-09-20T23:41:59.366Z,99.90
2022-09-20T23:45:03.819Z,99.90
2022-09-20T23:48:08.298Z,99.90
2022-09-20T23:51:18.471Z,99.90
2022-09-20T23:54:22.644Z,99.90
2022-09-20T23:57:26.810Z,99.90
